sensor_id;sensor_type;location;lat;lon;timestamp;temperature;humidity
47174;DHT22;36730;49.036;9.094;2022-09-24T00:00:43;21.70;65.50
47174;DHT22;36730;49.036;9.094;2022-09-24T00:03:10;21.70;65.40
47174;DHT22;36730;49.036;9.094;2022-09-24T00:05:39;21.70;65.40
47174;DHT22;36730;49.036;9.094;2022-09-24T00:08:06;21.70;65.50
47174;DHT22;36730;49.036;9.094;2022-09-24T00:10:39;21.70;65.60
47174;DHT22;36730;49.036;9.094;2022-09-24T00:13:07;21.70;65.70
47174;DHT22;36730;49.036;9.094;2022-09-24T00:15:40;21.70;65.60
47174;DHT22;36730;49.036;9.094;2022-09-24T00:18:06;21.70;65.80
47174;DHT22;36730;49.036;9.094;2022-09-24T00:20:33;21.70;65.70
47174;DHT22;36730;49.036;9.094;2022-09-24T00:23:00;21.70;65.70
47174;DHT22;36730;49.036;9.094;2022-09-24T00:25:25;21.70;65.70
47174;DHT22;36730;49.036;9.094;2022-09-24T00:28:10;21.70;65.70
47174;DHT22;36730;49.036;9.094;2022-09-24T00:30:37;21.60;65.70
47174;DHT22;36730;49.036;9.094;2022-09-24T00:33:03;21.60;66.00
47174;DHT22;36730;49.036;9.094;2022-09-24T00:35:31;21.60;65.80
47174;DHT22;36730;49.036;9.094;2022-09-24T00:37:56;21.60;65.80
47174;DHT22;36730;49.036;9.094;2022-09-24T00:40:30;21.60;65.80
47174;DHT22;36730;49.036;9.094;2022-09-24T00:42:56;21.60;65.70
47174;DHT22;36730;49.036;9.094;2022-09-24T00:45:22;21.60;65.80
47174;DHT22;36730;49.036;9.094;2022-09-24T00:47:48;21.60;65.80
47174;DHT22;36730;49.036;9.094;2022-09-24T00:50:32;21.60;66.10
47174;DHT22;36730;49.036;9.094;2022-09-24T00:53:04;21.60;66.00
47174;DHT22;36730;49.036;9.094;2022-09-24T00:55:33;21.60;66.00
47174;DHT22;36730;49.036;9.094;2022-09-24T00:58:02;21.60;65.90
47174;DHT22;36730;49.036;9.094;2022-09-24T01:00:29;21.60;66.00
47174;DHT22;36730;49.036;9.094;2022-09-24T01:02:57;21.60;66.00
47174;DHT22;36730;49.036;9.094;2022-09-24T01:05:24;21.60;66.20
47174;DHT22;36730;49.036;9.094;2022-09-24T01:07:49;21.60;66.00
47174;DHT22;36730;49.036;9.094;2022-09-24T01:10:16;21.60;66.00
47174;DHT22;36730;49.036;9.094;2022-09-24T01:16:06;21.60;65.90
47174;DHT22;36730;49.036;9.094;2022-09-24T01:18:40;21.60;66.00
47174;DHT22;36730;49.036;9.094;2022-09-24T01:24:14;21.60;66.10
47174;DHT22;36730;49.036;9.094;2022-09-24T01:29:37;21.60;65.90
47174;DHT22;36730;49.036;9.094;2022-09-24T01:32:28;21.60;66.00
47174;DHT22;36730;49.036;9.094;2022-09-24T01:35:22;21.60;66.10
47174;DHT22;36730;49.036;9.094;2022-09-24T01:37:54;21.60;66.00
47174;DHT22;36730;49.036;9.094;2022-09-24T01:40:23;21.60;66.10
47174;DHT22;36730;49.036;9.094;2022-09-24T01:42:50;21.60;66.10
47174;DHT22;36730;49.036;9.094;2022-09-24T01:45:17;21.60;66.10
47174;DHT22;36730;49.036;9.094;2022-09-24T01:47:43;21.60;66.10
47174;DHT22;36730;49.036;9.094;2022-09-24T01:50:12;21.60;66.30
47174;DHT22;36730;49.036;9.094;2022-09-24T01:55:16;21.60;66.20
47174;DHT22;36730;49.036;9.094;2022-09-24T01:57:58;21.60;66.10
47174;DHT22;36730;49.036;9.094;2022-09-24T02:00:24;21.60;66.30
47174;DHT22;36730;49.036;9.094;2022-09-24T02:03:08;21.60;66.30
47174;DHT22;36730;49.036;9.094;2022-09-24T02:05:42;21.60;66.20
47174;DHT22;36730;49.036;9.094;2022-09-24T02:08:20;21.60;66.30
47174;DHT22;36730;49.036;9.094;2022-09-24T02:10:55;21.60;66.20
47174;DHT22;36730;49.036;9.094;2022-09-24T02:13:26;21.60;66.20
47174;DHT22;36730;49.036;9.094;2022-09-24T02:15:57;21.60;66.30
47174;DHT22;36730;49.036;9.094;2022-09-24T02:18:28;21.60;66.20
47174;DHT22;36730;49.036;9.094;2022-09-24T02:20:56;21.60;66.30
47174;DHT22;36730;49.036;9.094;2022-09-24T02:23:25;21.60;66.20
47174;DHT22;36730;49.036;9.094;2022-09-24T02:25:56;21.60;66.30
47174;DHT22;36730;49.036;9.094;2022-09-24T02:28:23;21.60;66.20
47174;DHT22;36730;49.036;9.094;2022-09-24T02:31:02;21.60;66.20
47174;DHT22;36730;49.036;9.094;2022-09-24T02:33:31;21.60;66.40
47174;DHT22;36730;49.036;9.094;2022-09-24T02:36:16;21.60;66.30
47174;DHT22;36730;49.036;9.094;2022-09-24T02:38:41;21.60;66.30
47174;DHT22;36730;49.036;9.094;2022-09-24T02:41:07;21.60;66.40
47174;DHT22;36730;49.036;9.094;2022-09-24T02:43:34;21.60;66.30
47174;DHT22;36730;49.036;9.094;2022-09-24T02:46:00;21.60;66.20
47174;DHT22;36730;49.036;9.094;2022-09-24T02:48:26;21.60;66.30
47174;DHT22;36730;49.036;9.094;2022-09-24T02:50:52;21.60;66.20
47174;DHT22;36730;49.036;9.094;2022-09-24T02:53:18;21.60;66.30
47174;DHT22;36730;49.036;9.094;2022-09-24T02:55:44;21.60;66.40
47174;DHT22;36730;49.036;9.094;2022-09-24T02:58:09;21.50;66.40
47174;DHT22;36730;49.036;9.094;2022-09-24T03:00:35;21.50;66.30
47174;DHT22;36730;49.036;9.094;2022-09-24T03:03:00;21.60;66.40
47174;DHT22;36730;49.036;9.094;2022-09-24T03:05:26;21.60;66.40
47174;DHT22;36730;49.036;9.094;2022-09-24T03:07:52;21.60;66.40
47174;DHT22;36730;49.036;9.094;2022-09-24T03:10:17;21.60;66.50
47174;DHT22;36730;49.036;9.094;2022-09-24T03:12:43;21.60;66.50
47174;DHT22;36730;49.036;9.094;2022-09-24T03:15:09;21.60;66.50
47174;DHT22;36730;49.036;9.094;2022-09-24T03:17:35;21.60;66.40
47174;DHT22;36730;49.036;9.094;2022-09-24T03:20:01;21.60;66.50
47174;DHT22;36730;49.036;9.094;2022-09-24T03:22:26;21.60;66.40
47174;DHT22;36730;49.036;9.094;2022-09-24T03:24:52;21.50;66.30
47174;DHT22;36730;49.036;9.094;2022-09-24T03:27:18;21.60;66.50
47174;DHT22;36730;49.036;9.094;2022-09-24T03:29:44;21.60;66.50
47174;DHT22;36730;49.036;9.094;2022-09-24T03:32:28;21.60;66.40
47174;DHT22;36730;49.036;9.094;2022-09-24T03:34:58;21.50;66.30
47174;DHT22;36730;49.036;9.094;2022-09-24T03:37:24;21.50;66.30
47174;DHT22;36730;49.036;9.094;2022-09-24T03:39:49;21.50;66.40
47174;DHT22;36730;49.036;9.094;2022-09-24T03:42:15;21.50;66.50
47174;DHT22;36730;49.036;9.094;2022-09-24T03:44:40;21.50;66.50
47174;DHT22;36730;49.036;9.094;2022-09-24T03:47:06;21.50;66.50
47174;DHT22;36730;49.036;9.094;2022-09-24T03:49:32;21.60;66.60
47174;DHT22;36730;49.036;9.094;2022-09-24T03:51:58;21.60;66.50
47174;DHT22;36730;49.036;9.094;2022-09-24T03:54:23;21.60;66.60
47174;DHT22;36730;49.036;9.094;2022-09-24T03:56:49;21.60;66.40
47174;DHT22;36730;49.036;9.094;2022-09-24T03:59:14;21.50;66.50
47174;DHT22;36730;49.036;9.094;2022-09-24T04:01:40;21.50;66.50
47174;DHT22;36730;49.036;9.094;2022-09-24T04:04:05;21.50;66.50
47174;DHT22;36730;49.036;9.094;2022-09-24T04:06:31;21.50;66.50
47174;DHT22;36730;49.036;9.094;2022-09-24T04:08:57;21.50;66.50
47174;DHT22;36730;49.036;9.094;2022-09-24T04:11:23;21.50;66.50
47174;DHT22;36730;49.036;9.094;2022-09-24T04:13:49;21.50;66.50
47174;DHT22;36730;49.036;9.094;2022-09-24T04:16:15;21.50;66.70
47174;DHT22;36730;49.036;9.094;2022-09-24T04:18:40;21.50;66.60
47174;DHT22;36730;49.036;9.094;2022-09-24T04:21:06;21.60;66.50
47174;DHT22;36730;49.036;9.094;2022-09-24T04:23:32;21.50;66.50
47174;DHT22;36730;49.036;9.094;2022-09-24T04:25:58;21.50;66.60
47174;DHT22;36730;49.036;9.094;2022-09-24T04:28:26;21.50;66.50
47174;DHT22;36730;49.036;9.094;2022-09-24T04:30:52;21.50;66.60
47174;DHT22;36730;49.036;9.094;2022-09-24T04:33:18;21.50;66.70
47174;DHT22;36730;49.036;9.094;2022-09-24T04:35:44;21.50;66.80
47174;DHT22;36730;49.036;9.094;2022-09-24T04:38:10;21.50;66.80
47174;DHT22;36730;49.036;9.094;2022-09-24T04:40:36;21.50;67.00
47174;DHT22;36730;49.036;9.094;2022-09-24T04:43:02;21.40;66.80
47174;DHT22;36730;49.036;9.094;2022-09-24T04:45:30;21.40;66.90
47174;DHT22;36730;49.036;9.094;2022-09-24T04:47:56;21.50;66.90
47174;DHT22;36730;49.036;9.094;2022-09-24T04:50:23;21.50;66.90
47174;DHT22;36730;49.036;9.094;2022-09-24T04:52:49;21.50;66.90
47174;DHT22;36730;49.036;9.094;2022-09-24T04:55:15;21.50;66.90
47174;DHT22;36730;49.036;9.094;2022-09-24T04:57:41;21.50;66.90
47174;DHT22;36730;49.036;9.094;2022-09-24T05:00:10;21.50;66.90
47174;DHT22;36730;49.036;9.094;2022-09-24T05:02:38;21.40;66.80
47174;DHT22;36730;49.036;9.094;2022-09-24T05:05:05;21.50;66.90
47174;DHT22;36730;49.036;9.094;2022-09-24T05:07:30;21.50;66.90
47174;DHT22;36730;49.036;9.094;2022-09-24T05:09:56;21.50;66.90
47174;DHT22;36730;49.036;9.094;2022-09-24T05:12:21;21.50;66.90
47174;DHT22;36730;49.036;9.094;2022-09-24T05:14:47;21.50;66.80
47174;DHT22;36730;49.036;9.094;2022-09-24T05:17:13;21.50;66.80
47174;DHT22;36730;49.036;9.094;2022-09-24T05:19:39;21.50;66.80
47174;DHT22;36730;49.036;9.094;2022-09-24T05:22:04;21.50;66.80
47174;DHT22;36730;49.036;9.094;2022-09-24T05:24:30;21.50;66.90
47174;DHT22;36730;49.036;9.094;2022-09-24T05:26:55;21.50;66.90
47174;DHT22;36730;49.036;9.094;2022-09-24T05:29:40;21.50;66.90
47174;DHT22;36730;49.036;9.094;2022-09-24T05:32:08;21.50;66.90
47174;DHT22;36730;49.036;9.094;2022-09-24T05:34:34;21.50;66.90
47174;DHT22;36730;49.036;9.094;2022-09-24T05:37:01;21.50;67.10
47174;DHT22;36730;49.036;9.094;2022-09-24T05:39:27;21.50;67.00
47174;DHT22;36730;49.036;9.094;2022-09-24T05:41:53;21.40;67.10
47174;DHT22;36730;49.036;9.094;2022-09-24T05:44:18;21.40;67.00
47174;DHT22;36730;49.036;9.094;2022-09-24T05:46:46;21.50;67.10
47174;DHT22;36730;49.036;9.094;2022-09-24T05:49:12;21.40;66.90
47174;DHT22;36730;49.036;9.094;2022-09-24T05:51:38;21.40;67.00
47174;DHT22;36730;49.036;9.094;2022-09-24T05:54:03;21.50;67.00
47174;DHT22;36730;49.036;9.094;2022-09-24T05:56:29;21.50;67.00
47174;DHT22;36730;49.036;9.094;2022-09-24T05:58:54;21.50;67.20
47174;DHT22;36730;49.036;9.094;2022-09-24T06:01:20;21.40;66.90
47174;DHT22;36730;49.036;9.094;2022-09-24T06:03:45;21.40;67.00
47174;DHT22;36730;49.036;9.094;2022-09-24T06:06:11;21.40;67.20
47174;DHT22;36730;49.036;9.094;2022-09-24T06:08:36;21.40;67.30
47174;DHT22;36730;49.036;9.094;2022-09-24T06:11:05;21.40;67.30
47174;DHT22;36730;49.036;9.094;2022-09-24T06:13:31;21.30;67.40
47174;DHT22;36730;49.036;9.094;2022-09-24T06:16:09;21.30;67.50
47174;DHT22;36730;49.036;9.094;2022-09-24T06:18:37;21.30;67.70
47174;DHT22;36730;49.036;9.094;2022-09-24T06:21:06;21.30;68.20
47174;DHT22;36730;49.036;9.094;2022-09-24T06:23:36;21.30;67.60
47174;DHT22;36730;49.036;9.094;2022-09-24T06:26:03;21.30;67.70
47174;DHT22;36730;49.036;9.094;2022-09-24T06:28:28;21.30;67.70
47174;DHT22;36730;49.036;9.094;2022-09-24T06:30:54;21.30;67.60
47174;DHT22;36730;49.036;9.094;2022-09-24T06:33:20;21.30;67.50
47174;DHT22;36730;49.036;9.094;2022-09-24T06:35:47;21.30;67.50
47174;DHT22;36730;49.036;9.094;2022-09-24T06:38:15;21.40;67.50
47174;DHT22;36730;49.036;9.094;2022-09-24T06:40:42;21.40;67.50
47174;DHT22;36730;49.036;9.094;2022-09-24T06:43:10;21.40;67.40
47174;DHT22;36730;49.036;9.094;2022-09-24T06:45:36;21.40;67.50
47174;DHT22;36730;49.036;9.094;2022-09-24T06:48:03;21.40;67.50
47174;DHT22;36730;49.036;9.094;2022-09-24T06:50:32;21.40;67.50
47174;DHT22;36730;49.036;9.094;2022-09-24T06:52:58;21.40;67.40
47174;DHT22;36730;49.036;9.094;2022-09-24T06:55:25;21.40;67.40
47174;DHT22;36730;49.036;9.094;2022-09-24T06:58:00;21.40;67.40
47174;DHT22;36730;49.036;9.094;2022-09-24T07:00:26;21.40;67.40
47174;DHT22;36730;49.036;9.094;2022-09-24T07:02:51;21.40;67.40
47174;DHT22;36730;49.036;9.094;2022-09-24T07:05:17;21.40;67.30
47174;DHT22;36730;49.036;9.094;2022-09-24T07:07:42;21.50;67.40
47174;DHT22;36730;49.036;9.094;2022-09-24T07:10:08;21.40;67.70
47174;DHT22;36730;49.036;9.094;2022-09-24T07:12:35;21.40;68.10
47174;DHT22;36730;49.036;9.094;2022-09-24T07:15:01;21.40;68.50
47174;DHT22;36730;49.036;9.094;2022-09-24T07:17:27;21.40;68.70
47174;DHT22;36730;49.036;9.094;2022-09-24T07:19:53;21.40;69.00
47174;DHT22;36730;49.036;9.094;2022-09-24T07:22:19;21.40;68.70
47174;DHT22;36730;49.036;9.094;2022-09-24T07:24:45;21.40;68.60
47174;DHT22;36730;49.036;9.094;2022-09-24T07:27:12;21.40;68.30
47174;DHT22;36730;49.036;9.094;2022-09-24T07:29:37;21.40;68.40
47174;DHT22;36730;49.036;9.094;2022-09-24T07:32:03;21.40;68.30
47174;DHT22;36730;49.036;9.094;2022-09-24T07:34:29;21.50;68.20
47174;DHT22;36730;49.036;9.094;2022-09-24T07:36:55;21.50;68.20
47174;DHT22;36730;49.036;9.094;2022-09-24T07:39:22;21.50;68.20
47174;DHT22;36730;49.036;9.094;2022-09-24T07:41:47;21.50;68.20
47174;DHT22;36730;49.036;9.094;2022-09-24T07:44:13;21.50;68.30
47174;DHT22;36730;49.036;9.094;2022-09-24T07:46:39;21.50;68.70
47174;DHT22;36730;49.036;9.094;2022-09-24T07:49:05;21.50;68.10
47174;DHT22;36730;49.036;9.094;2022-09-24T07:51:30;21.50;68.40
47174;DHT22;36730;49.036;9.094;2022-09-24T07:53:56;21.50;68.70
47174;DHT22;36730;49.036;9.094;2022-09-24T07:56:23;21.40;68.90
47174;DHT22;36730;49.036;9.094;2022-09-24T07:58:50;21.40;69.20
47174;DHT22;36730;49.036;9.094;2022-09-24T08:01:17;21.40;69.30
47174;DHT22;36730;49.036;9.094;2022-09-24T08:03:43;21.40;69.40
47174;DHT22;36730;49.036;9.094;2022-09-24T08:06:09;21.40;69.70
47174;DHT22;36730;49.036;9.094;2022-09-24T08:08:35;21.40;69.90
47174;DHT22;36730;49.036;9.094;2022-09-24T08:11:05;21.40;69.70
47174;DHT22;36730;49.036;9.094;2022-09-24T08:13:31;21.40;69.40
47174;DHT22;36730;49.036;9.094;2022-09-24T08:15:58;21.40;69.20
47174;DHT22;36730;49.036;9.094;2022-09-24T08:18:24;21.40;69.30
47174;DHT22;36730;49.036;9.094;2022-09-24T08:20:50;21.40;69.20
47174;DHT22;36730;49.036;9.094;2022-09-24T08:23:15;21.40;69.20
47174;DHT22;36730;49.036;9.094;2022-09-24T08:25:41;21.40;69.20
47174;DHT22;36730;49.036;9.094;2022-09-24T08:28:07;21.40;69.20
47174;DHT22;36730;49.036;9.094;2022-09-24T08:30:35;21.50;69.30
47174;DHT22;36730;49.036;9.094;2022-09-24T08:33:00;21.50;69.20
47174;DHT22;36730;49.036;9.094;2022-09-24T08:35:26;21.50;69.20
47174;DHT22;36730;49.036;9.094;2022-09-24T08:37:55;21.50;69.20
47174;DHT22;36730;49.036;9.094;2022-09-24T08:40:25;21.50;69.30
47174;DHT22;36730;49.036;9.094;2022-09-24T08:43:18;21.50;69.30
47174;DHT22;36730;49.036;9.094;2022-09-24T08:45:56;21.50;69.30
47174;DHT22;36730;49.036;9.094;2022-09-24T08:48:45;21.50;69.30
47174;DHT22;36730;49.036;9.094;2022-09-24T08:51:18;21.50;69.20
47174;DHT22;36730;49.036;9.094;2022-09-24T08:54:07;21.50;69.20
47174;DHT22;36730;49.036;9.094;2022-09-24T08:56:36;21.60;69.30
47174;DHT22;36730;49.036;9.094;2022-09-24T09:07:20;21.60;69.00
47174;DHT22;36730;49.036;9.094;2022-09-24T09:12:29;21.70;68.90
47174;DHT22;36730;49.036;9.094;2022-09-24T09:15:09;21.70;68.90
47174;DHT22;36730;49.036;9.094;2022-09-24T09:20:17;21.70;68.80
47174;DHT22;36730;49.036;9.094;2022-09-24T09:22:50;21.70;68.90
47174;DHT22;36730;49.036;9.094;2022-09-24T09:25:17;21.70;68.80
47174;DHT22;36730;49.036;9.094;2022-09-24T09:27:45;21.70;68.80
47174;DHT22;36730;49.036;9.094;2022-09-24T09:30:13;21.70;68.70
47174;DHT22;36730;49.036;9.094;2022-09-24T09:35:49;21.80;68.60
47174;DHT22;36730;49.036;9.094;2022-09-24T09:38:31;21.80;68.60
47174;DHT22;36730;49.036;9.094;2022-09-24T09:41:19;21.80;68.60
47174;DHT22;36730;49.036;9.094;2022-09-24T09:43:47;21.80;68.70
47174;DHT22;36730;49.036;9.094;2022-09-24T09:46:23;21.80;68.70
47174;DHT22;36730;49.036;9.094;2022-09-24T09:48:57;21.80;68.70
47174;DHT22;36730;49.036;9.094;2022-09-24T09:51:25;21.80;68.70
47174;DHT22;36730;49.036;9.094;2022-09-24T09:56:26;21.80;68.70
47174;DHT22;36730;49.036;9.094;2022-09-24T10:01:32;21.90;68.60
47174;DHT22;36730;49.036;9.094;2022-09-24T10:03:59;21.90;68.70
47174;DHT22;36730;49.036;9.094;2022-09-24T10:06:34;21.90;68.60
47174;DHT22;36730;49.036;9.094;2022-09-24T10:09:15;21.90;68.70
47174;DHT22;36730;49.036;9.094;2022-09-24T10:11:41;22.00;68.50
47174;DHT22;36730;49.036;9.094;2022-09-24T10:14:12;22.00;68.50
47174;DHT22;36730;49.036;9.094;2022-09-24T10:16:40;22.00;68.50
47174;DHT22;36730;49.036;9.094;2022-09-24T10:19:20;22.00;68.30
47174;DHT22;36730;49.036;9.094;2022-09-24T10:21:47;22.00;68.20
47174;DHT22;36730;49.036;9.094;2022-09-24T10:24:20;22.10;68.20
47174;DHT22;36730;49.036;9.094;2022-09-24T10:26:46;22.10;68.10
47174;DHT22;36730;49.036;9.094;2022-09-24T10:29:15;22.10;68.00
47174;DHT22;36730;49.036;9.094;2022-09-24T10:32:05;22.10;68.00
47174;DHT22;36730;49.036;9.094;2022-09-24T10:34:31;22.10;68.00
47174;DHT22;36730;49.036;9.094;2022-09-24T10:37:12;22.10;68.20
47174;DHT22;36730;49.036;9.094;2022-09-24T10:39:38;22.10;68.20
47174;DHT22;36730;49.036;9.094;2022-09-24T10:42:03;22.10;68.10
47174;DHT22;36730;49.036;9.094;2022-09-24T10:44:35;22.10;68.20
47174;DHT22;36730;49.036;9.094;2022-09-24T10:47:34;22.10;68.10
47174;DHT22;36730;49.036;9.094;2022-09-24T10:52:43;22.20;68.00
47174;DHT22;36730;49.036;9.094;2022-09-24T10:58:02;22.20;67.80
47174;DHT22;36730;49.036;9.094;2022-09-24T11:00:44;22.20;67.90
47174;DHT22;36730;49.036;9.094;2022-09-24T11:06:01;22.20;67.80
47174;DHT22;36730;49.036;9.094;2022-09-24T11:19:36;22.30;67.80
47174;DHT22;36730;49.036;9.094;2022-09-24T11:22:16;22.20;67.70
47174;DHT22;36730;49.036;9.094;2022-09-24T11:30:21;22.30;67.80
47174;DHT22;36730;49.036;9.094;2022-09-24T11:46:32;22.40;67.80
47174;DHT22;36730;49.036;9.094;2022-09-24T11:57:33;22.30;67.80
47174;DHT22;36730;49.036;9.094;2022-09-24T12:00:03;22.30;68.20
47174;DHT22;36730;49.036;9.094;2022-09-24T12:02:44;22.30;68.60
47174;DHT22;36730;49.036;9.094;2022-09-24T12:06:00;22.30;69.20
47174;DHT22;36730;49.036;9.094;2022-09-24T12:08:12;22.40;68.90
47174;DHT22;36730;49.036;9.094;2022-09-24T12:10:51;22.40;68.50
47174;DHT22;36730;49.036;9.094;2022-09-24T12:13:20;22.40;68.60
47174;DHT22;36730;49.036;9.094;2022-09-24T12:15:59;22.30;68.80
47174;DHT22;36730;49.036;9.094;2022-09-24T12:18:44;22.30;69.10
47174;DHT22;36730;49.036;9.094;2022-09-24T12:21:17;22.30;68.40
47174;DHT22;36730;49.036;9.094;2022-09-24T12:23:45;22.40;68.80
47174;DHT22;36730;49.036;9.094;2022-09-24T12:26:13;22.40;68.70
47174;DHT22;36730;49.036;9.094;2022-09-24T12:28:57;22.30;68.60
47174;DHT22;36730;49.036;9.094;2022-09-24T12:37:52;22.40;68.60
47174;DHT22;36730;49.036;9.094;2022-09-24T12:40:37;22.40;68.80
47174;DHT22;36730;49.036;9.094;2022-09-24T12:43:28;22.40;68.70
47174;DHT22;36730;49.036;9.094;2022-09-24T12:46:01;22.40;68.80
47174;DHT22;36730;49.036;9.094;2022-09-24T12:48:29;22.30;68.70
47174;DHT22;36730;49.036;9.094;2022-09-24T12:50:57;22.30;68.90
47174;DHT22;36730;49.036;9.094;2022-09-24T12:53:31;22.40;68.90
47174;DHT22;36730;49.036;9.094;2022-09-24T12:56:02;22.40;69.20
47174;DHT22;36730;49.036;9.094;2022-09-24T12:58:38;22.30;68.90
47174;DHT22;36730;49.036;9.094;2022-09-24T13:04:24;22.40;69.30
47174;DHT22;36730;49.036;9.094;2022-09-24T13:06:46;22.40;69.40
47174;DHT22;36730;49.036;9.094;2022-09-24T13:09:37;22.40;69.50
47174;DHT22;36730;49.036;9.094;2022-09-24T13:14:41;22.40;69.20
47174;DHT22;36730;49.036;9.094;2022-09-24T13:17:07;22.40;69.10
47174;DHT22;36730;49.036;9.094;2022-09-24T13:19:43;22.40;69.20
47174;DHT22;36730;49.036;9.094;2022-09-24T13:22:28;22.40;69.60
47174;DHT22;36730;49.036;9.094;2022-09-24T13:25:24;22.40;70.00
47174;DHT22;36730;49.036;9.094;2022-09-24T13:27:59;22.40;69.50
47174;DHT22;36730;49.036;9.094;2022-09-24T13:35:49;22.40;69.40
47174;DHT22;36730;49.036;9.094;2022-09-24T13:38:20;22.40;70.00
47174;DHT22;36730;49.036;9.094;2022-09-24T13:46:34;22.40;69.60
47174;DHT22;36730;49.036;9.094;2022-09-24T13:49:04;22.40;69.80
47174;DHT22;36730;49.036;9.094;2022-09-24T13:51:36;22.40;69.90
47174;DHT22;36730;49.036;9.094;2022-09-24T13:54:22;22.30;69.70
47174;DHT22;36730;49.036;9.094;2022-09-24T13:57:05;22.40;69.80
47174;DHT22;36730;49.036;9.094;2022-09-24T13:59:34;22.40;69.70
47174;DHT22;36730;49.036;9.094;2022-09-24T14:01:59;22.40;69.70
47174;DHT22;36730;49.036;9.094;2022-09-24T14:04:25;22.40;69.50
47174;DHT22;36730;49.036;9.094;2022-09-24T14:06:52;22.40;69.60
47174;DHT22;36730;49.036;9.094;2022-09-24T14:11:49;22.40;70.30
47174;DHT22;36730;49.036;9.094;2022-09-24T14:14:19;22.40;70.40
47174;DHT22;36730;49.036;9.094;2022-09-24T14:16:46;22.40;70.10
47174;DHT22;36730;49.036;9.094;2022-09-24T14:19:14;22.40;70.20
47174;DHT22;36730;49.036;9.094;2022-09-24T14:21:41;22.40;70.10
47174;DHT22;36730;49.036;9.094;2022-09-24T14:24:32;22.40;70.20
47174;DHT22;36730;49.036;9.094;2022-09-24T14:27:02;22.40;70.20
47174;DHT22;36730;49.036;9.094;2022-09-24T14:29:43;22.40;70.20
47174;DHT22;36730;49.036;9.094;2022-09-24T14:34:53;22.40;70.30
47174;DHT22;36730;49.036;9.094;2022-09-24T14:37:23;22.40;70.30
47174;DHT22;36730;49.036;9.094;2022-09-24T14:39:57;22.40;70.60
47174;DHT22;36730;49.036;9.094;2022-09-24T14:42:35;22.40;70.80
47174;DHT22;36730;49.036;9.094;2022-09-24T14:45:05;22.40;70.80
47174;DHT22;36730;49.036;9.094;2022-09-24T14:47:34;22.40;71.20
47174;DHT22;36730;49.036;9.094;2022-09-24T14:50:00;22.40;71.60
47174;DHT22;36730;49.036;9.094;2022-09-24T14:52:29;22.40;72.80
47174;DHT22;36730;49.036;9.094;2022-09-24T14:55:15;22.40;73.60
47174;DHT22;36730;49.036;9.094;2022-09-24T14:57:41;22.40;72.50
47174;DHT22;36730;49.036;9.094;2022-09-24T15:00:47;22.30;76.30
47174;DHT22;36730;49.036;9.094;2022-09-24T15:03:15;22.40;76.90
47174;DHT22;36730;49.036;9.094;2022-09-24T15:05:41;22.30;76.00
47174;DHT22;36730;49.036;9.094;2022-09-24T15:08:25;22.30;76.10
47174;DHT22;36730;49.036;9.094;2022-09-24T15:11:01;22.30;76.90
47174;DHT22;36730;49.036;9.094;2022-09-24T15:13:35;22.40;74.10
47174;DHT22;36730;49.036;9.094;2022-09-24T15:16:19;22.30;76.20
47174;DHT22;36730;49.036;9.094;2022-09-24T15:21:21;22.40;72.40
47174;DHT22;36730;49.036;9.094;2022-09-24T15:23:47;22.40;73.20
47174;DHT22;36730;49.036;9.094;2022-09-24T15:26:12;22.40;72.80
47174;DHT22;36730;49.036;9.094;2022-09-24T15:28:38;22.40;72.50
47174;DHT22;36730;49.036;9.094;2022-09-24T15:31:04;22.40;72.60
47174;DHT22;36730;49.036;9.094;2022-09-24T15:33:29;22.40;72.60
47174;DHT22;36730;49.036;9.094;2022-09-24T15:35:55;22.40;72.70
47174;DHT22;36730;49.036;9.094;2022-09-24T15:38:20;22.40;72.80
47174;DHT22;36730;49.036;9.094;2022-09-24T15:40:46;22.40;73.00
47174;DHT22;36730;49.036;9.094;2022-09-24T15:43:21;22.40;73.40
47174;DHT22;36730;49.036;9.094;2022-09-24T15:45:47;22.40;73.90
47174;DHT22;36730;49.036;9.094;2022-09-24T15:48:12;22.50;74.70
47174;DHT22;36730;49.036;9.094;2022-09-24T15:50:39;22.40;75.10
47174;DHT22;36730;49.036;9.094;2022-09-24T15:53:06;22.50;75.10
47174;DHT22;36730;49.036;9.094;2022-09-24T15:55:36;22.50;75.60
47174;DHT22;36730;49.036;9.094;2022-09-24T15:58:01;22.50;76.00
47174;DHT22;36730;49.036;9.094;2022-09-24T16:00:27;22.50;76.40
47174;DHT22;36730;49.036;9.094;2022-09-24T16:02:55;22.50;76.30
47174;DHT22;36730;49.036;9.094;2022-09-24T16:05:21;22.50;76.80
47174;DHT22;36730;49.036;9.094;2022-09-24T16:07:47;22.50;77.00
47174;DHT22;36730;49.036;9.094;2022-09-24T16:10:14;22.50;77.20
47174;DHT22;36730;49.036;9.094;2022-09-24T16:12:41;22.50;77.30
47174;DHT22;36730;49.036;9.094;2022-09-24T16:15:10;22.50;77.20
47174;DHT22;36730;49.036;9.094;2022-09-24T16:17:36;22.50;77.70
47174;DHT22;36730;49.036;9.094;2022-09-24T16:20:03;22.50;78.60
47174;DHT22;36730;49.036;9.094;2022-09-24T16:22:28;22.50;79.10
47174;DHT22;36730;49.036;9.094;2022-09-24T16:24:54;22.50;79.50
47174;DHT22;36730;49.036;9.094;2022-09-24T16:27:20;22.50;79.60
47174;DHT22;36730;49.036;9.094;2022-09-24T16:29:45;22.50;80.00
47174;DHT22;36730;49.036;9.094;2022-09-24T16:32:11;22.60;80.40
47174;DHT22;36730;49.036;9.094;2022-09-24T16:34:38;22.60;81.00
47174;DHT22;36730;49.036;9.094;2022-09-24T16:37:03;22.60;81.10
47174;DHT22;36730;49.036;9.094;2022-09-24T16:39:29;22.60;81.50
47174;DHT22;36730;49.036;9.094;2022-09-24T16:41:56;22.60;81.90
47174;DHT22;36730;49.036;9.094;2022-09-24T16:44:22;22.60;82.20
47174;DHT22;36730;49.036;9.094;2022-09-24T16:46:47;22.60;82.30
47174;DHT22;36730;49.036;9.094;2022-09-24T16:49:13;22.60;82.60
47174;DHT22;36730;49.036;9.094;2022-09-24T16:51:38;22.60;82.70
47174;DHT22;36730;49.036;9.094;2022-09-24T16:54:04;22.70;83.00
47174;DHT22;36730;49.036;9.094;2022-09-24T16:56:30;22.60;83.30
47174;DHT22;36730;49.036;9.094;2022-09-24T16:58:56;22.70;83.80
47174;DHT22;36730;49.036;9.094;2022-09-24T17:01:22;22.70;84.00
47174;DHT22;36730;49.036;9.094;2022-09-24T17:03:56;22.70;84.00
47174;DHT22;36730;49.036;9.094;2022-09-24T17:06:24;22.70;84.70
47174;DHT22;36730;49.036;9.094;2022-09-24T17:08:50;22.70;84.80
47174;DHT22;36730;49.036;9.094;2022-09-24T17:11:35;22.70;84.80
47174;DHT22;36730;49.036;9.094;2022-09-24T17:14:01;22.70;85.10
47174;DHT22;36730;49.036;9.094;2022-09-24T17:16:27;22.70;85.10
47174;DHT22;36730;49.036;9.094;2022-09-24T17:18:53;22.70;85.40
47174;DHT22;36730;49.036;9.094;2022-09-24T17:21:19;22.70;85.60
47174;DHT22;36730;49.036;9.094;2022-09-24T17:23:45;22.70;85.60
47174;DHT22;36730;49.036;9.094;2022-09-24T17:26:13;22.70;86.00
47174;DHT22;36730;49.036;9.094;2022-09-24T17:28:41;22.80;86.20
47174;DHT22;36730;49.036;9.094;2022-09-24T17:31:08;22.70;86.40
47174;DHT22;36730;49.036;9.094;2022-09-24T17:33:34;22.70;86.30
47174;DHT22;36730;49.036;9.094;2022-09-24T17:36:03;22.80;86.70